createdAt,value
2022-10-28T00:03:54.571Z,22.17
2022-10-28T00:08:58.423Z,21.73
2022-10-28T00:14:05.100Z,20.57
2022-10-28T00:19:12.350Z,21.10
2022-10-28T00:24:16.193Z,25.67
2022-10-28T00:29:20.771Z,22.20
2022-10-28T00:34:24.121Z,22.70
2022-10-28T00:39:27.937Z,22.73
2022-10-28T00:44:44.210Z,25.00
2022-10-28T00:49:50.709Z,25.87
2022-10-28T00:54:55.832Z,31.60
2022-10-28T01:00:03.499Z,32.07
2022-10-28T01:05:07.794Z,27.50
2022-10-28T01:10:12.993Z,25.50
2022-10-28T01:15:40.354Z,25.60
2022-10-28T01:20:58.692Z,24.00
2022-10-28T01:26:29.893Z,25.77
2022-10-28T01:31:46.133Z,27.03
2022-10-28T01:37:13.792Z,26.90
2022-10-28T01:42:28.661Z,27.27
2022-10-28T01:47:35.022Z,28.50
2022-10-28T01:52:40.752Z,27.90
2022-10-28T01:57:44.452Z,30.80
2022-10-28T02:02:51.192Z,29.80
2022-10-28T02:08:02.094Z,28.90
2022-10-28T02:13:13.018Z,31.30
2022-10-28T02:18:39.969Z,32.70
2022-10-28T02:23:53.552Z,30.43
2022-10-28T02:29:09.312Z,32.87
2022-10-28T02:34:22.273Z,31.93
2022-10-28T02:39:38.842Z,31.27
2022-10-28T02:44:49.322Z,30.93
2022-10-28T02:49:57.951Z,32.57
2022-10-28T02:55:06.500Z,33.07
2022-10-28T03:00:15.717Z,33.23
2022-10-28T03:05:19.004Z,33.43
2022-10-28T03:10:22.342Z,36.40
2022-10-28T03:15:25.963Z,35.40
2022-10-28T03:20:29.763Z,35.37
2022-10-28T03:25:33.358Z,37.90
2022-10-28T03:30:36.465Z,36.63
2022-10-28T03:35:39.712Z,36.60
2022-10-28T03:40:43.067Z,37.33
2022-10-28T03:45:46.242Z,38.43
2022-10-28T03:51:09.902Z,43.17
2022-10-28T03:56:13.513Z,47.53
2022-10-28T04:01:17.354Z,41.50
2022-10-28T04:06:20.896Z,38.60
2022-10-28T04:11:24.231Z,40.07
2022-10-28T04:16:27.257Z,40.87
2022-10-28T04:21:30.576Z,39.53
2022-10-28T04:26:33.836Z,35.73
2022-10-28T04:31:37.286Z,33.27
2022-10-28T04:36:40.967Z,35.93
2022-10-28T04:41:44.459Z,35.70
2022-10-28T04:46:47.734Z,37.43
2022-10-28T04:51:52.059Z,35.73
2022-10-28T04:56:55.787Z,35.00
2022-10-28T05:01:59.644Z,36.87
2022-10-28T05:07:03.207Z,37.00
2022-10-28T05:12:07.188Z,40.00
2022-10-28T05:17:13.586Z,37.13
2022-10-28T05:22:19.186Z,36.30
2022-10-28T05:27:22.636Z,36.73
2022-10-28T05:32:25.747Z,37.90
2022-10-28T05:37:28.696Z,37.57
2022-10-28T05:42:32.054Z,37.40
2022-10-28T05:47:37.777Z,36.23
2022-10-28T05:52:54.526Z,39.23
2022-10-28T05:57:58.240Z,38.43
2022-10-28T06:08:39.194Z,42.50
2022-10-28T06:13:42.025Z,40.57
2022-10-28T06:18:45.671Z,41.73
2022-10-28T06:23:49.171Z,40.87
2022-10-28T06:28:52.515Z,41.33
2022-10-28T06:33:56.660Z,43.37
2022-10-28T06:39:00.037Z,46.93
2022-10-28T06:44:08.148Z,44.80
2022-10-28T06:49:13.248Z,43.77
2022-10-28T06:54:16.525Z,45.10
2022-10-28T06:59:19.593Z,46.53
2022-10-28T07:04:23.027Z,44.27
2022-10-28T07:09:26.680Z,47.50
2022-10-28T07:14:30.225Z,53.10
2022-10-28T07:19:33.631Z,70.87
2022-10-28T07:24:36.952Z,54.03
2022-10-28T07:29:40.256Z,51.53
2022-10-28T07:34:43.637Z,49.17
2022-10-28T07:39:46.931Z,51.63
2022-10-28T07:44:50.341Z,50.07
2022-10-28T07:49:54.713Z,53.23
2022-10-28T07:54:58.245Z,56.70
2022-10-28T08:00:01.785Z,56.90
2022-10-28T08:05:05.662Z,58.73
2022-10-28T08:10:09.489Z,61.17
2022-10-28T08:15:15.570Z,60.17
2022-10-28T08:20:18.847Z,58.90
2022-10-28T08:25:22.475Z,62.53
2022-10-28T08:30:40.398Z,59.93
2022-10-28T08:35:53.572Z,57.90
2022-10-28T08:42:03.175Z,56.93
2022-10-28T08:47:32.430Z,58.63
2022-10-28T08:52:45.064Z,59.03
2022-10-28T08:57:57.241Z,55.63
2022-10-28T09:03:12.159Z,53.77
2022-10-28T09:08:26.559Z,51.83
2022-10-28T09:13:52.376Z,52.17
2022-10-28T09:18:59.728Z,47.33
2022-10-28T09:24:19.465Z,49.33
2022-10-28T09:29:44.400Z,49.40
2022-10-28T09:34:58.443Z,53.57
2022-10-28T09:40:24.053Z,51.27
2022-10-28T09:45:31.638Z,53.27
2022-10-28T09:50:34.834Z,52.87
2022-10-28T09:55:38.076Z,44.33
2022-10-28T10:00:41.422Z,39.67
2022-10-28T10:05:49.883Z,37.20
2022-10-28T10:11:14.321Z,34.95
2022-10-28T10:16:56.610Z,32.20
2022-10-28T10:21:59.671Z,27.65
2022-10-28T10:27:12.211Z,25.00
2022-10-28T10:32:27.470Z,25.80
2022-10-28T10:37:34.480Z,25.30
2022-10-28T10:42:46.525Z,23.85
2022-10-28T10:48:15.556Z,23.40
2022-10-28T10:53:29.093Z,21.77
2022-10-28T10:58:36.848Z,19.80
2022-10-28T11:03:59.915Z,20.15
2022-10-28T11:09:08.099Z,18.83
2022-10-28T11:14:13.090Z,19.08
2022-10-28T11:19:21.202Z,18.90
2022-10-28T11:24:47.866Z,16.00
2022-10-28T11:29:51.554Z,16.60
2022-10-28T11:35:26.755Z,18.43
2022-10-28T11:41:11.913Z,18.80
2022-10-28T11:46:45.272Z,20.58
2022-10-28T11:52:04.003Z,20.60
2022-10-28T11:57:17.662Z,19.30
2022-10-28T12:02:42.578Z,20.90
2022-10-28T12:08:07.714Z,21.87
2022-10-28T12:13:29.742Z,23.67
2022-10-28T12:18:58.833Z,25.60
2022-10-28T12:24:04.125Z,22.97
2022-10-28T12:29:16.900Z,20.37
2022-10-28T12:34:31.997Z,22.77
2022-10-28T12:39:50.026Z,24.90
2022-10-28T12:44:58.128Z,21.70
2022-10-28T12:50:09.308Z,21.83
2022-10-28T13:00:26.341Z,23.25
2022-10-28T13:05:44.013Z,22.55
2022-10-28T13:11:11.522Z,22.15
2022-10-28T13:16:52.011Z,22.42
2022-10-28T13:22:21.959Z,21.10
2022-10-28T13:27:26.483Z,21.45
2022-10-28T13:32:43.430Z,21.00
2022-10-28T13:37:49.682Z,19.52
2022-10-28T13:42:53.470Z,19.08
2022-10-28T13:48:29.032Z,21.38
2022-10-28T13:53:33.257Z,24.25
2022-10-28T13:58:39.528Z,21.42
2022-10-28T14:03:52.714Z,19.80
2022-10-28T14:08:57.240Z,20.08
2022-10-28T14:14:05.000Z,19.20
2022-10-28T14:19:10.863Z,20.13
2022-10-28T14:24:32.381Z,17.85
2022-10-28T14:29:54.590Z,15.95
2022-10-28T14:35:02.280Z,17.45
2022-10-28T14:40:34.899Z,14.45
2022-10-28T14:46:06.579Z,12.95
2022-10-28T14:51:15.781Z,14.02
2022-10-28T14:56:31.479Z,13.20
2022-10-28T15:01:57.731Z,14.50
2022-10-28T15:07:02.378Z,15.50
2022-10-28T15:12:12.265Z,16.15
2022-10-28T15:17:22.186Z,16.92
2022-10-28T15:22:34.086Z,16.02
2022-10-28T15:27:41.709Z,21.92
2022-10-28T15:32:45.997Z,29.35
2022-10-28T15:37:49.667Z,23.23
2022-10-28T15:43:05.085Z,21.38
2022-10-28T15:48:15.195Z,21.93
2022-10-28T15:53:32.891Z,20.52
2022-10-28T15:58:40.466Z,19.42
2022-10-28T16:03:48.137Z,20.37
2022-10-28T16:09:10.236Z,19.60
2022-10-28T16:14:39.874Z,18.93
2022-10-28T16:19:58.373Z,19.97
2022-10-28T16:25:01.806Z,18.70
2022-10-28T16:30:05.955Z,18.30
2022-10-28T16:35:20.647Z,17.48
2022-10-28T16:45:50.066Z,18.20
2022-10-28T16:50:57.585Z,16.67
2022-10-28T16:56:01.333Z,17.03
2022-10-28T17:01:04.774Z,16.87
2022-10-28T17:06:09.354Z,17.80
2022-10-28T17:11:17.703Z,15.67
2022-10-28T17:16:21.343Z,17.13
2022-10-28T17:21:26.764Z,16.80
2022-10-28T17:26:31.476Z,19.00
2022-10-28T17:31:35.875Z,20.23
2022-10-28T17:36:39.796Z,27.47
2022-10-28T17:41:44.207Z,31.50
2022-10-28T17:46:51.983Z,35.07
2022-10-28T17:51:55.525Z,48.83
2022-10-28T17:56:59.149Z,32.00
2022-10-28T18:02:07.516Z,40.00
2022-10-28T18:07:11.486Z,43.00
2022-10-28T18:12:15.313Z,46.97
2022-10-28T18:17:19.125Z,46.17
2022-10-28T18:22:27.024Z,40.87
2022-10-28T18:27:44.836Z,36.93
2022-10-28T18:32:53.618Z,27.40
2022-10-28T18:38:06.606Z,29.40
2022-10-28T18:43:11.120Z,31.53
2022-10-28T18:48:16.587Z,30.60
2022-10-28T18:53:32.746Z,28.63
2022-10-28T18:58:40.778Z,27.60
2022-10-28T19:03:46.317Z,26.13
2022-10-28T19:09:02.284Z,27.10
2022-10-28T19:14:14.388Z,25.57
2022-10-28T19:19:24.426Z,24.73
2022-10-28T19:24:39.537Z,23.43
2022-10-28T19:29:44.307Z,22.83
2022-10-28T19:34:56.308Z,22.07
2022-10-28T19:40:00.874Z,19.93
2022-10-28T19:45:08.177Z,19.10
2022-10-28T19:50:11.775Z,21.17
2022-10-28T19:55:16.406Z,20.17
2022-10-28T20:00:20.507Z,19.77
2022-10-28T20:05:24.386Z,19.87
2022-10-28T20:10:28.632Z,20.37
2022-10-28T20:15:32.777Z,18.53
2022-10-28T20:20:38.256Z,18.13
2022-10-28T20:25:53.407Z,18.03
2022-10-28T20:31:02.947Z,18.50
2022-10-28T20:36:21.277Z,18.73
2022-10-28T20:41:26.152Z,18.60
2022-10-28T20:46:29.837Z,16.73
2022-10-28T20:51:34.443Z,17.67
2022-10-28T20:56:39.497Z,16.97
2022-10-28T21:01:43.192Z,16.13
2022-10-28T21:06:46.768Z,16.10
2022-10-28T21:11:50.342Z,17.63
2022-10-28T21:16:54.100Z,16.87
2022-10-28T21:21:57.910Z,18.57
2022-10-28T21:27:01.106Z,16.70
2022-10-28T21:32:04.736Z,17.13
2022-10-28T21:37:08.607Z,18.00
2022-10-28T21:42:11.896Z,19.40
2022-10-28T21:47:15.078Z,20.33
2022-10-28T21:52:18.802Z,22.10
2022-10-28T21:57:22.246Z,22.83
2022-10-28T22:02:25.943Z,23.37
2022-10-28T22:07:29.368Z,22.80
2022-10-28T22:12:32.615Z,24.40
2022-10-28T22:17:35.837Z,26.60
2022-10-28T22:22:39.136Z,28.20
2022-10-28T22:27:42.629Z,28.67
2022-10-28T22:32:45.599Z,26.17
2022-10-28T22:37:48.547Z,29.50
2022-10-28T22:42:51.823Z,27.47
2022-10-28T22:47:55.415Z,24.47
2022-10-28T22:52:58.997Z,24.40
2022-10-28T22:58:03.831Z,23.37
2022-10-28T23:03:07.536Z,22.33
2022-10-28T23:08:19.724Z,23.23
2022-10-28T23:13:41.739Z,22.30
2022-10-28T23:18:53.656Z,22.70
2022-10-28T23:23:59.861Z,24.67
2022-10-28T23:29:04.476Z,21.70
2022-10-28T23:34:08.116Z,20.57
2022-10-28T23:39:11.795Z,19.50
2022-10-28T23:44:16.316Z,20.60
2022-10-28T23:49:22.934Z,18.83
2022-10-28T23:54:26.547Z,21.63
2022-10-28T23:59:35.879Z,19.53
